createdAt,value
2019-05-18T00:00:13.352Z,8.00
2019-05-18T00:01:13.350Z,8.00
2019-05-18T00:02:13.331Z,12.00
2019-05-18T00:03:13.320Z,8.00
2019-05-18T00:04:13.309Z,12.00
2019-05-18T00:05:13.348Z,12.00
2019-05-18T00:06:13.287Z,16.00
2019-05-18T00:07:13.276Z,20.00
2019-05-18T00:08:13.270Z,20.00
2019-05-18T00:09:13.259Z,24.00
2019-05-18T00:10:13.243Z,28.00
2019-05-18T00:11:13.381Z,28.00
2019-05-18T00:12:13.222Z,28.00
2019-05-18T00:13:13.213Z,32.00
2019-05-18T00:14:13.201Z,36.00
2019-05-18T00:15:13.189Z,36.00
2019-05-18T00:16:13.177Z,40.00
2019-05-18T00:17:24.868Z,48.00
2019-05-18T00:18:37.972Z,56.00
2019-05-18T00:19:37.967Z,64.00
2019-05-18T00:20:37.950Z,72.00
2019-05-18T00:21:37.939Z,80.00
2019-05-18T00:22:37.983Z,92.00
2019-05-18T00:23:37.917Z,100.00
2019-05-18T00:24:37.907Z,108.00
2019-05-18T00:25:37.895Z,124.00
2019-05-18T00:26:37.887Z,136.00
2019-05-18T00:27:37.872Z,152.00
2019-05-18T00:28:38.013Z,168.00
2019-05-18T00:29:37.851Z,188.00
2019-05-18T00:30:37.839Z,204.00
2019-05-18T00:31:37.831Z,228.00
2019-05-18T00:32:37.818Z,256.00
2019-05-18T00:33:37.808Z,284.00
2019-05-18T00:34:37.846Z,316.00
2019-05-18T00:35:37.792Z,348.00
2019-05-18T00:36:37.791Z,376.00
2019-05-18T00:37:37.784Z,388.00
2019-05-18T00:38:37.791Z,404.00
2019-05-18T00:39:37.744Z,408.00
2019-05-18T00:40:37.787Z,416.00
2019-05-18T00:41:37.723Z,432.00
2019-05-18T00:42:37.717Z,460.00
2019-05-18T00:43:37.704Z,512.00
2019-05-18T00:44:37.690Z,568.00
2019-05-18T00:45:37.681Z,612.00
2019-05-18T00:46:37.821Z,652.00
2019-05-18T00:47:41.395Z,704.00
2019-05-18T00:48:37.651Z,768.00
2019-05-18T00:49:37.637Z,824.00
2019-05-18T00:50:37.626Z,872.00
2019-05-18T00:51:37.719Z,940.00
2019-05-18T00:52:37.609Z,1028.00
2019-05-18T00:53:37.595Z,1128.00
2019-05-18T00:54:37.584Z,1232.00
2019-05-18T00:55:37.574Z,1340.00
2019-05-18T00:56:37.669Z,1452.00
2019-05-18T00:57:37.550Z,1560.00
2019-05-18T00:58:37.543Z,1672.00
2019-05-18T00:59:37.531Z,1796.00
2019-05-18T01:00:37.531Z,1920.00
2019-05-18T01:01:37.508Z,2040.00
2019-05-18T01:02:37.648Z,2148.00
2019-05-18T01:03:37.488Z,2288.00
2019-05-18T01:04:37.487Z,2408.00
2019-05-18T01:05:38.272Z,2524.00
2019-05-18T01:06:37.455Z,2612.00
2019-05-18T01:07:37.444Z,2720.00
2019-05-18T01:08:37.488Z,2856.00
2019-05-18T01:09:37.423Z,3020.00
2019-05-18T01:10:37.413Z,3192.00
2019-05-18T01:11:37.400Z,3608.00
2019-05-18T01:12:37.390Z,3688.00
2019-05-18T01:13:37.375Z,3988.00
2019-05-18T01:14:37.467Z,4356.00
2019-05-18T01:15:37.357Z,4736.00
2019-05-18T01:16:37.347Z,5180.00
2019-05-18T01:17:37.380Z,5736.00
2019-05-18T01:18:37.324Z,10712.00
2019-05-18T01:19:37.312Z,16160.00
2019-05-18T01:20:37.454Z,20512.00
2019-05-18T01:21:37.291Z,18080.00
2019-05-18T01:22:37.284Z,15960.00
2019-05-18T01:23:37.270Z,26560.00
2019-05-18T01:24:37.258Z,30432.00
2019-05-18T01:25:37.254Z,27552.00
2019-05-18T01:26:37.287Z,12456.00
2019-05-18T01:27:37.229Z,17976.00
2019-05-18T01:28:37.217Z,14660.00
2019-05-18T01:29:37.234Z,27360.00
2019-05-18T01:30:37.196Z,17232.00
2019-05-18T01:31:37.186Z,37088.00
2019-05-18T01:32:37.223Z,26848.00
2019-05-18T01:33:37.161Z,35488.00
2019-05-18T01:34:37.154Z,49184.00
2019-05-18T01:35:37.139Z,47008.00
2019-05-18T01:36:37.129Z,49120.00
2019-05-18T01:37:37.117Z,43584.00
2019-05-18T01:38:37.257Z,47552.00
2019-05-18T01:39:37.110Z,42816.00
2019-05-18T01:40:37.087Z,44960.00
2019-05-18T01:41:37.073Z,46016.00
2019-05-18T01:42:37.065Z,46592.00
2019-05-18T01:43:37.055Z,47264.00
2019-05-18T01:44:37.094Z,43360.00
2019-05-18T01:45:37.031Z,48128.00
2019-05-18T01:46:37.022Z,53504.00
2019-05-18T01:47:37.009Z,57344.00
2019-05-18T01:48:36.998Z,59488.00
2019-05-18T01:49:36.992Z,52224.00
2019-05-18T01:50:37.028Z,47648.00
2019-05-18T01:51:36.967Z,48000.00
2019-05-18T01:52:36.956Z,51328.00
2019-05-18T01:53:36.946Z,47872.00
2019-05-18T01:54:36.936Z,43008.00
2019-05-18T01:55:36.923Z,39712.00
2019-05-18T01:56:36.969Z,48992.00
2019-05-18T01:57:36.910Z,14312.00
2019-05-18T01:58:36.895Z,14520.00
2019-05-18T01:59:36.886Z,51040.00
2019-05-18T02:00:36.874Z,23328.00
2019-05-18T02:01:36.864Z,27744.00
2019-05-18T02:02:36.899Z,45696.00
2019-05-18T02:03:36.843Z,59712.00
2019-05-18T02:04:36.830Z,64736.00
2019-05-18T02:05:36.822Z,62400.00
2019-05-18T02:06:36.812Z,65632.00
2019-05-18T02:07:36.800Z,59200.00
2019-05-18T02:08:36.838Z,56640.00
2019-05-18T02:09:36.779Z,52864.00
2019-05-18T02:10:36.770Z,44096.00
2019-05-18T02:11:36.757Z,45504.00
2019-05-18T02:12:36.749Z,45184.00
2019-05-18T02:13:36.735Z,38496.00
2019-05-18T02:14:36.775Z,38336.00
2019-05-18T02:15:36.718Z,42144.00
2019-05-18T02:16:36.706Z,33440.00
2019-05-18T02:17:36.697Z,35296.00
2019-05-18T02:18:36.682Z,37248.00
2019-05-18T02:19:36.671Z,35168.00
2019-05-18T02:20:36.714Z,34112.00
2019-05-18T02:21:36.658Z,26016.00
2019-05-18T02:22:36.641Z,16052.00
2019-05-18T02:23:36.634Z,10632.00
2019-05-18T02:24:36.621Z,10808.00
2019-05-18T02:25:36.762Z,10720.00
2019-05-18T02:26:36.601Z,11304.00
2019-05-18T02:27:36.591Z,12288.00
2019-05-18T02:28:36.580Z,25600.00
2019-05-18T02:29:36.570Z,34016.00
2019-05-18T02:30:36.558Z,26432.00
2019-05-18T02:31:36.602Z,31296.00
2019-05-18T02:32:36.562Z,15692.00
2019-05-18T02:33:36.534Z,13348.00
2019-05-18T02:34:36.521Z,13128.00
2019-05-18T02:35:36.511Z,13068.00
2019-05-18T02:36:36.496Z,22464.00
2019-05-18T02:39:36.514Z,18652.00
2019-05-18T02:40:36.455Z,16524.00
2019-05-18T02:41:36.442Z,15332.00
2019-05-18T02:42:36.435Z,14088.00
2019-05-18T02:43:36.421Z,13400.00
2019-05-18T02:44:36.412Z,11440.00
2019-05-18T02:45:36.648Z,10556.00
2019-05-18T02:46:36.391Z,10336.00
2019-05-18T02:47:36.386Z,10796.00
2019-05-18T02:48:48.400Z,10220.00
2019-05-18T02:50:01.172Z,9896.00
2019-05-18T02:51:01.209Z,9836.00
2019-05-18T02:52:01.151Z,10068.00
2019-05-18T02:53:01.150Z,10792.00
2019-05-18T02:54:01.128Z,11772.00
2019-05-18T02:55:01.116Z,12564.00
2019-05-18T02:56:01.117Z,26016.00
2019-05-18T02:57:01.147Z,25504.00
2019-05-18T02:58:01.111Z,26816.00
2019-05-18T02:59:01.082Z,24864.00
2019-05-18T03:00:01.064Z,17240.00
2019-05-18T03:01:01.056Z,12344.00
2019-05-18T03:02:01.043Z,10792.00
2019-05-18T03:03:01.284Z,10136.00
2019-05-18T03:04:01.038Z,9700.00
2019-05-18T03:05:01.018Z,9380.00
2019-05-18T03:06:01.003Z,8932.00
2019-05-18T03:07:00.991Z,8584.00
2019-05-18T03:08:00.981Z,8080.00
2019-05-18T03:09:01.073Z,7432.00
2019-05-18T03:10:00.962Z,6792.00
2019-05-18T03:11:00.962Z,6144.00
2019-05-18T03:12:00.941Z,5568.00
2019-05-18T03:13:00.935Z,5120.00
2019-05-18T03:14:00.921Z,4812.00
2019-05-18T03:15:00.960Z,4588.00
2019-05-18T03:16:00.899Z,4416.00
2019-05-18T03:17:00.886Z,4288.00
2019-05-18T03:18:00.883Z,4204.00
2019-05-18T03:19:08.157Z,4144.00
2019-05-18T03:20:02.100Z,4036.00
2019-05-18T03:21:00.849Z,3864.00
2019-05-18T03:22:01.253Z,3676.00
2019-05-18T03:23:00.827Z,3468.00
2019-05-18T03:24:00.823Z,3260.00
2019-05-18T03:25:00.813Z,3068.00
2019-05-18T03:26:00.844Z,2912.00
2019-05-18T03:27:00.790Z,2784.00
2019-05-18T03:28:00.778Z,2684.00
2019-05-18T03:29:00.763Z,2620.00
2019-05-18T03:30:00.769Z,2564.00
2019-05-18T03:31:00.743Z,2504.00
2019-05-18T03:32:00.831Z,2440.00
2019-05-18T03:33:00.735Z,2384.00
2019-05-18T03:34:00.798Z,2352.00
2019-05-18T03:35:00.727Z,2336.00
2019-05-18T03:36:00.709Z,2312.00
2019-05-18T03:37:00.675Z,2296.00
2019-05-18T03:38:00.917Z,2288.00
2019-05-18T03:39:00.656Z,2300.00
2019-05-18T03:40:00.669Z,2328.00
2019-05-18T03:41:00.636Z,2352.00
2019-05-18T03:42:00.622Z,2356.00
2019-05-18T03:43:00.622Z,2352.00
2019-05-18T03:44:00.654Z,2344.00
2019-05-18T03:45:00.589Z,2344.00
2019-05-18T03:46:00.579Z,2328.00
2019-05-18T03:47:00.569Z,2296.00
2019-05-18T03:48:00.556Z,2244.00
2019-05-18T03:49:00.546Z,2176.00
2019-05-18T03:50:00.597Z,2096.00
2019-05-18T03:51:00.524Z,2012.00
2019-05-18T03:52:00.521Z,1920.00
2019-05-18T03:53:00.504Z,1804.00
2019-05-18T03:54:00.496Z,1664.00
2019-05-18T03:55:00.498Z,1516.00
2019-05-18T03:56:00.871Z,1368.00
2019-05-18T03:57:00.464Z,1232.00
2019-05-18T03:58:00.455Z,1116.00
2019-05-18T03:59:00.441Z,1000.00
2019-05-18T04:00:00.431Z,904.00
2019-05-18T04:01:00.423Z,836.00
2019-05-18T04:02:00.511Z,808.00
2019-05-18T04:03:00.416Z,844.00
2019-05-18T04:04:00.389Z,912.00
2019-05-18T04:05:00.378Z,972.00
2019-05-18T04:06:00.373Z,1036.00
2019-05-18T04:07:00.356Z,1108.00
2019-05-18T04:08:00.397Z,1168.00
2019-05-18T04:09:00.338Z,1196.00
2019-05-18T04:10:00.327Z,1192.00
2019-05-18T04:11:00.314Z,1156.00
2019-05-18T04:12:00.303Z,1088.00
2019-05-18T04:13:00.295Z,976.00
2019-05-18T04:14:00.435Z,876.00
2019-05-18T04:15:00.275Z,784.00
2019-05-18T04:16:00.270Z,720.00
2019-05-18T04:17:00.251Z,668.00
2019-05-18T04:18:00.243Z,636.00
2019-05-18T04:19:00.245Z,620.00
2019-05-18T04:20:00.270Z,612.00
2019-05-18T04:21:00.207Z,608.00
2019-05-18T04:22:00.233Z,604.00
2019-05-18T04:23:00.184Z,596.00
2019-05-18T04:24:00.172Z,580.00
2019-05-18T04:25:00.168Z,564.00
2019-05-18T04:26:00.202Z,548.00
2019-05-18T04:27:00.141Z,536.00
2019-05-18T04:28:00.131Z,524.00
2019-05-18T04:29:00.119Z,504.00
2019-05-18T04:30:00.132Z,488.00
2019-05-18T04:31:00.099Z,476.00
2019-05-18T04:32:00.236Z,464.00
2019-05-18T04:33:00.078Z,464.00
2019-05-18T04:34:00.065Z,480.00
2019-05-18T04:35:00.059Z,504.00
2019-05-18T04:36:00.051Z,540.00
2019-05-18T04:37:00.039Z,584.00
2019-05-18T04:38:00.072Z,632.00
2019-05-18T04:39:00.012Z,684.00
2019-05-18T04:40:00.007Z,752.00
2019-05-18T04:40:59.991Z,848.00
2019-05-18T04:41:59.978Z,972.00
2019-05-18T04:42:59.971Z,1140.00
2019-05-18T04:44:00.006Z,1372.00
2019-05-18T04:44:59.947Z,1680.00
2019-05-18T04:45:59.937Z,2064.00
2019-05-18T04:46:59.935Z,2536.00
2019-05-18T04:47:59.914Z,3012.00
2019-05-18T04:48:59.906Z,3376.00
2019-05-18T04:50:04.913Z,3600.00
2019-05-18T04:50:59.883Z,3672.00
2019-05-18T04:51:59.873Z,3596.00
2019-05-18T04:52:59.861Z,3412.00
2019-05-18T04:53:59.851Z,3204.00
2019-05-18T04:54:59.842Z,2972.00
2019-05-18T04:55:59.898Z,2744.00
2019-05-18T04:56:59.820Z,2520.00
2019-05-18T04:57:59.806Z,2320.00
2019-05-18T04:58:59.800Z,2140.00
2019-05-18T04:59:59.790Z,1952.00
2019-05-18T05:00:59.785Z,1752.00
2019-05-18T05:01:59.874Z,1556.00
2019-05-18T05:02:59.752Z,1380.00
2019-05-18T05:03:59.743Z,1216.00
2019-05-18T05:04:59.733Z,1076.00
2019-05-18T05:05:59.721Z,960.00
2019-05-18T05:07:59.760Z,748.00
2019-05-18T05:08:59.688Z,688.00
2019-05-18T05:09:59.677Z,664.00
2019-05-18T05:10:59.668Z,636.00
2019-05-18T05:11:59.662Z,632.00
2019-05-18T05:12:59.647Z,648.00
2019-05-18T05:13:59.736Z,656.00
2019-05-18T05:14:59.625Z,648.00
2019-05-18T05:15:59.615Z,640.00
2019-05-18T05:16:59.603Z,620.00
2019-05-18T05:17:59.594Z,608.00
2019-05-18T05:18:59.581Z,612.00
2019-05-18T05:20:59.711Z,604.00
2019-05-18T05:21:59.550Z,588.00
2019-05-18T05:22:59.584Z,572.00
2019-05-18T05:23:59.527Z,556.00
2019-05-18T05:24:59.517Z,524.00
2019-05-18T05:25:59.507Z,500.00
2019-05-18T05:26:59.546Z,488.00
2019-05-18T05:27:59.486Z,492.00
2019-05-18T05:28:59.473Z,504.00
2019-05-18T05:29:59.464Z,492.00
2019-05-18T05:30:59.453Z,496.00
2019-05-18T05:31:59.444Z,500.00
2019-05-18T05:32:59.479Z,500.00
2019-05-18T05:33:59.420Z,504.00
2019-05-18T05:34:59.408Z,512.00
2019-05-18T05:35:59.398Z,532.00
2019-05-18T05:36:59.397Z,568.00
2019-05-18T05:37:59.479Z,604.00
2019-05-18T05:38:59.364Z,632.00
2019-05-18T05:39:59.353Z,668.00
2019-05-18T05:40:59.359Z,688.00
2019-05-18T05:41:59.331Z,712.00
2019-05-18T05:42:59.326Z,740.00
2019-05-18T05:43:59.366Z,776.00
2019-05-18T05:44:59.299Z,820.00
2019-05-18T05:45:59.287Z,860.00
2019-05-18T05:46:59.278Z,904.00
2019-05-18T05:47:59.264Z,972.00
2019-05-18T05:48:59.256Z,1060.00
2019-05-18T05:49:59.343Z,1164.00
2019-05-18T05:50:59.236Z,1296.00
2019-05-18T05:51:59.223Z,1452.00
2019-05-18T05:52:59.211Z,1664.00
2019-05-18T05:53:59.202Z,1920.00
2019-05-18T05:54:59.193Z,2164.00
2019-05-18T05:55:59.231Z,2408.00
2019-05-18T05:56:59.174Z,2672.00
2019-05-18T05:57:59.159Z,2912.00
2019-05-18T05:58:59.149Z,3048.00
2019-05-18T05:59:59.140Z,3092.00
2019-05-18T06:00:59.128Z,3120.00
2019-05-18T06:01:59.170Z,3228.00
2019-05-18T06:02:59.107Z,3312.00
2019-05-18T06:03:59.096Z,3276.00
2019-05-18T06:04:59.084Z,3332.00
2019-05-18T06:05:59.074Z,3384.00
2019-05-18T06:06:59.063Z,3248.00
2019-05-18T06:07:59.107Z,2968.00
2019-05-18T06:08:59.044Z,2760.00
2019-05-18T06:09:59.030Z,2724.00
2019-05-18T06:10:59.026Z,2728.00
2019-05-18T06:11:59.010Z,2636.00
2019-05-18T06:12:58.999Z,2488.00
2019-05-18T06:13:59.042Z,2304.00
2019-05-18T06:14:58.983Z,2148.00
2019-05-18T06:15:58.967Z,2044.00
2019-05-18T06:16:58.958Z,2000.00
2019-05-18T06:17:58.945Z,1948.00
2019-05-18T06:18:59.393Z,1852.00
2019-05-18T06:19:58.923Z,1756.00
2019-05-18T06:20:58.914Z,1688.00
2019-05-18T06:21:58.902Z,1672.00
2019-05-18T06:22:58.891Z,1716.00
2019-05-18T06:23:58.880Z,1788.00
2019-05-18T06:24:58.919Z,1848.00
2019-05-18T06:25:58.859Z,1872.00
2019-05-18T06:26:58.847Z,1836.00
2019-05-18T06:27:58.836Z,1820.00
2019-05-18T06:28:58.829Z,1852.00
2019-05-18T06:29:58.815Z,1848.00
2019-05-18T06:30:58.855Z,1844.00
2019-05-18T06:31:58.795Z,1880.00
2019-05-18T06:32:58.802Z,1960.00
2019-05-18T06:33:58.776Z,2116.00
2019-05-18T06:34:58.763Z,2268.00
2019-05-18T06:35:58.755Z,2388.00
2019-05-18T06:36:58.899Z,2448.00
2019-05-18T06:37:58.732Z,2472.00
2019-05-18T06:38:58.722Z,2484.00
2019-05-18T06:39:58.709Z,2540.00
2019-05-18T06:40:58.701Z,2584.00
2019-05-18T06:41:58.688Z,2644.00
2019-05-18T06:42:58.725Z,2768.00
2019-05-18T06:43:58.666Z,2904.00
2019-05-18T06:44:58.654Z,2992.00
2019-05-18T06:45:58.645Z,3008.00
2019-05-18T06:46:58.636Z,2952.00
2019-05-18T06:47:58.622Z,2872.00
2019-05-18T06:48:58.662Z,2784.00
2019-05-18T06:49:58.600Z,2680.00
2019-05-18T06:51:07.305Z,2612.00
2019-05-18T06:51:59.675Z,2556.00
2019-05-18T06:52:58.571Z,2516.00
2019-05-18T06:53:58.559Z,2460.00
2019-05-18T06:54:58.841Z,2352.00
2019-05-18T06:55:58.538Z,2192.00
2019-05-18T06:56:58.527Z,1988.00
2019-05-18T06:57:58.515Z,1804.00
2019-05-18T06:58:58.516Z,1708.00
2019-05-18T06:59:58.501Z,1668.00
2019-05-18T07:00:58.585Z,1636.00
2019-05-18T07:01:58.482Z,1620.00
2019-05-18T07:02:58.463Z,1624.00
2019-05-18T07:03:58.452Z,1640.00
2019-05-18T07:04:58.440Z,1668.00
2019-05-18T07:05:58.530Z,1720.00
2019-05-18T07:06:58.419Z,1800.00
2019-05-18T07:07:58.412Z,1900.00
2019-05-18T07:08:58.397Z,1960.00
2019-05-18T07:09:58.391Z,1960.00
2019-05-18T07:10:58.376Z,1940.00
2019-05-18T07:11:58.417Z,1996.00
2019-05-18T07:12:58.357Z,2108.00
2019-05-18T07:13:58.347Z,2248.00
2019-05-18T07:15:00.348Z,2460.00
2019-05-18T07:15:58.326Z,2732.00
2019-05-18T07:16:58.318Z,3080.00
2019-05-18T07:17:58.403Z,3504.00
2019-05-18T07:18:58.294Z,4044.00
2019-05-18T07:19:58.282Z,4520.00
2019-05-18T07:20:58.273Z,4884.00
2019-05-18T07:21:58.258Z,5064.00
2019-05-18T07:22:58.248Z,5188.00
2019-05-18T07:23:58.287Z,5224.00
2019-05-18T07:24:58.227Z,5176.00
2019-05-18T07:25:58.217Z,5092.00
2019-05-18T07:26:58.205Z,4972.00
2019-05-18T07:27:58.193Z,4860.00
2019-05-18T07:28:58.202Z,4820.00
2019-05-18T07:29:58.273Z,4824.00
2019-05-18T07:30:58.161Z,4840.00
2019-05-18T07:31:58.153Z,4864.00
2019-05-18T07:32:58.139Z,4980.00
2019-05-18T07:33:58.128Z,5224.00
2019-05-18T07:34:58.117Z,5504.00
2019-05-18T07:35:58.159Z,5692.00
2019-05-18T07:36:58.099Z,5720.00
2019-05-18T07:37:58.088Z,5532.00
2019-05-18T07:38:58.076Z,5216.00
2019-05-18T07:39:58.067Z,4836.00
2019-05-18T07:40:58.054Z,4380.00
2019-05-18T07:41:58.144Z,4240.00
2019-05-18T07:42:58.039Z,4168.00
2019-05-18T07:43:58.023Z,4140.00
2019-05-18T07:44:58.023Z,4188.00
2019-05-18T07:45:58.000Z,4264.00
2019-05-18T07:46:57.990Z,4296.00
2019-05-18T07:47:58.031Z,4260.00
2019-05-18T07:48:57.970Z,4160.00
2019-05-18T07:49:57.960Z,3996.00
2019-05-18T07:50:57.948Z,3828.00
2019-05-18T07:51:57.939Z,3692.00
2019-05-18T07:52:57.926Z,3588.00
2019-05-18T07:53:57.966Z,3540.00
2019-05-18T07:54:57.915Z,3600.00
2019-05-18T07:55:57.895Z,3704.00
2019-05-18T07:56:57.886Z,3832.00
2019-05-18T07:57:57.876Z,3996.00
2019-05-18T07:58:57.864Z,4200.00
2019-05-18T07:59:57.901Z,4448.00
2019-05-18T08:00:57.842Z,4772.00
2019-05-18T08:01:57.830Z,5144.00
2019-05-18T08:02:57.820Z,5504.00
2019-05-18T08:03:57.809Z,5768.00
2019-05-18T08:04:57.799Z,5976.00
2019-05-18T08:05:57.838Z,6152.00
2019-05-18T08:06:57.776Z,6300.00
2019-05-18T08:07:57.765Z,6360.00
2019-05-18T08:08:57.756Z,6308.00
2019-05-18T08:09:57.745Z,6196.00
2019-05-18T08:10:57.732Z,5980.00
2019-05-18T08:11:57.823Z,5760.00
2019-05-18T08:12:57.712Z,5556.00
2019-05-18T08:13:57.700Z,5352.00
2019-05-18T08:14:57.693Z,5172.00
2019-05-18T08:15:57.680Z,5096.00
2019-05-18T08:16:57.670Z,5088.00
2019-05-18T08:17:57.712Z,4992.00
2019-05-18T08:18:58.278Z,4816.00
2019-05-18T08:19:57.639Z,4672.00
2019-05-18T08:20:57.624Z,4584.00
2019-05-18T08:21:57.617Z,4556.00
2019-05-18T08:22:57.607Z,4496.00
2019-05-18T08:23:57.644Z,4396.00
2019-05-18T08:24:57.585Z,4216.00
2019-05-18T08:25:57.576Z,3948.00
2019-05-18T08:26:57.564Z,3632.00
2019-05-18T08:27:57.551Z,3312.00
2019-05-18T08:28:57.556Z,2984.00
2019-05-18T08:29:57.580Z,2664.00
2019-05-18T08:30:57.580Z,2368.00
2019-05-18T08:31:57.508Z,2148.00
2019-05-18T08:32:57.498Z,2016.00
2019-05-18T08:33:57.487Z,1928.00
2019-05-18T08:34:57.475Z,1836.00
2019-05-18T08:35:57.548Z,1744.00
2019-05-18T08:36:57.457Z,1652.00
2019-05-18T08:37:57.445Z,1580.00
2019-05-18T08:38:57.437Z,1528.00
2019-05-18T08:39:57.423Z,1496.00
2019-05-18T08:40:57.419Z,1456.00
2019-05-18T08:41:57.502Z,1424.00
2019-05-18T08:42:57.391Z,1404.00
2019-05-18T08:43:57.381Z,1392.00
2019-05-18T08:44:57.371Z,1368.00
2019-05-18T08:45:57.357Z,1344.00
2019-05-18T08:46:57.347Z,1324.00
2019-05-18T08:47:57.430Z,1312.00
2019-05-18T08:48:57.330Z,1308.00
2019-05-18T08:49:57.315Z,1312.00
2019-05-18T08:50:57.306Z,1320.00
2019-05-18T08:52:07.838Z,1332.00
2019-05-18T08:52:58.481Z,1336.00
2019-05-18T08:53:57.274Z,1340.00
2019-05-18T08:54:57.332Z,1340.00
2019-05-18T08:55:57.251Z,1340.00
2019-05-18T08:56:57.241Z,1340.00
2019-05-18T08:57:57.228Z,1348.00
2019-05-18T08:58:57.322Z,1376.00
2019-05-18T08:59:57.208Z,1412.00
2019-05-18T09:00:57.196Z,1448.00
2019-05-18T09:01:57.189Z,1492.00
2019-05-18T09:02:57.175Z,1544.00
2019-05-18T09:03:57.167Z,1588.00
2019-05-18T09:04:57.208Z,1616.00
2019-05-18T09:05:57.142Z,1644.00
2019-05-18T09:06:57.132Z,1664.00
2019-05-18T09:07:57.122Z,1700.00
2019-05-18T09:08:57.112Z,1740.00
2019-05-18T09:09:57.108Z,1788.00
2019-05-18T09:10:57.141Z,1832.00
2019-05-18T09:11:57.081Z,1868.00
2019-05-18T09:12:57.068Z,1892.00
2019-05-18T09:13:57.061Z,1912.00
2019-05-18T09:14:57.047Z,1932.00
2019-05-18T09:15:57.034Z,1960.00
2019-05-18T09:16:57.125Z,1976.00
2019-05-18T09:17:57.015Z,1980.00
2019-05-18T09:18:57.007Z,1968.00
2019-05-18T09:19:56.993Z,1936.00
2019-05-18T09:20:56.985Z,1900.00
2019-05-18T09:21:56.970Z,1860.00
2019-05-18T09:22:57.009Z,1804.00
2019-05-18T09:23:56.950Z,1740.00
2019-05-18T09:24:56.942Z,1680.00
2019-05-18T09:25:56.930Z,1624.00
2019-05-18T09:26:56.940Z,1584.00
2019-05-18T09:27:56.907Z,1556.00
2019-05-18T09:28:56.946Z,1544.00
2019-05-18T09:29:56.885Z,1520.00
2019-05-18T09:30:56.875Z,1504.00
2019-05-18T09:31:56.863Z,1480.00
2019-05-18T09:32:56.853Z,1460.00
2019-05-18T09:33:56.848Z,1452.00
2019-05-18T09:34:56.889Z,1452.00
2019-05-18T09:35:56.821Z,1444.00
2019-05-18T09:36:56.811Z,1428.00
2019-05-18T09:37:56.799Z,1412.00
2019-05-18T09:38:56.787Z,1392.00
2019-05-18T09:39:56.779Z,1384.00
2019-05-18T09:40:56.820Z,1372.00
2019-05-18T09:41:56.755Z,1364.00
2019-05-18T09:42:56.743Z,1352.00
2019-05-18T09:43:56.738Z,1348.00
2019-05-18T09:44:56.728Z,1356.00
2019-05-18T09:45:56.763Z,1364.00
2019-05-18T09:46:56.751Z,1384.00
2019-05-18T09:47:56.693Z,1396.00
2019-05-18T09:48:56.680Z,1420.00
2019-05-18T09:49:56.670Z,1436.00
2019-05-18T09:50:56.658Z,1456.00
2019-05-18T09:51:56.648Z,1492.00
2019-05-18T09:52:56.687Z,1528.00
2019-05-18T09:53:56.624Z,1580.00
2019-05-18T09:54:56.618Z,1624.00
2019-05-18T09:55:56.608Z,1660.00
2019-05-18T09:56:56.592Z,1680.00
2019-05-18T09:57:56.582Z,1680.00
2019-05-18T09:58:56.673Z,1644.00
2019-05-18T09:59:56.562Z,1588.00
2019-05-18T10:00:56.551Z,1560.00
2019-05-18T10:01:56.536Z,1556.00
2019-05-18T10:02:56.534Z,1576.00
2019-05-18T10:03:56.521Z,1592.00
2019-05-18T10:04:56.562Z,1592.00
2019-05-18T10:05:56.500Z,1568.00
2019-05-18T10:06:56.487Z,1532.00
2019-05-18T10:07:56.473Z,1496.00
2019-05-18T10:08:56.461Z,1476.00
2019-05-18T10:09:56.451Z,1472.00
2019-05-18T10:10:56.492Z,1476.00
2019-05-18T10:11:56.429Z,1488.00
2019-05-18T10:12:56.423Z,1500.00
2019-05-18T10:13:56.408Z,1512.00
2019-05-18T10:14:56.399Z,1560.00
2019-05-18T10:15:56.386Z,1680.00
2019-05-18T10:16:56.425Z,1828.00
2019-05-18T10:17:56.364Z,1972.00
2019-05-18T10:18:56.353Z,2112.00
2019-05-18T10:19:56.344Z,2220.00
2019-05-18T10:20:56.335Z,2316.00
2019-05-18T10:21:56.319Z,2416.00
2019-05-18T10:23:11.960Z,2508.00
2019-05-18T10:24:21.115Z,2668.00
2019-05-18T10:25:21.107Z,2808.00
2019-05-18T10:26:21.092Z,2948.00
2019-05-18T10:27:21.084Z,3088.00
2019-05-18T10:28:21.121Z,3220.00
2019-05-18T10:29:21.062Z,3352.00
2019-05-18T10:30:21.053Z,3492.00
2019-05-18T10:31:21.045Z,3652.00
2019-05-18T10:32:21.032Z,3824.00
2019-05-18T10:33:21.020Z,4004.00
2019-05-18T10:34:21.109Z,4200.00
2019-05-18T10:35:20.995Z,4376.00
2019-05-18T10:36:20.985Z,4528.00
2019-05-18T10:37:20.978Z,4676.00
2019-05-18T10:38:20.968Z,4816.00
2019-05-18T10:39:20.955Z,4936.00
2019-05-18T10:40:20.994Z,5048.00
2019-05-18T10:41:20.933Z,5160.00
2019-05-18T10:42:20.928Z,5268.00
2019-05-18T10:43:20.918Z,5356.00
2019-05-18T10:44:20.899Z,5436.00
2019-05-18T10:45:20.890Z,5504.00
2019-05-18T10:46:20.931Z,5556.00
2019-05-18T10:47:20.867Z,5600.00
2019-05-18T10:48:20.856Z,5636.00
2019-05-18T10:49:20.850Z,5692.00
2019-05-18T10:50:20.837Z,5736.00
2019-05-18T10:51:20.826Z,5784.00
2019-05-18T10:52:20.889Z,5856.00
2019-05-18T10:53:28.659Z,5900.00
2019-05-18T10:54:45.607Z,5972.00
2019-05-18T10:55:45.596Z,6028.00
2019-05-18T10:56:45.584Z,6088.00
2019-05-18T10:57:45.675Z,6144.00
2019-05-18T10:58:45.564Z,6204.00
2019-05-18T10:59:45.555Z,6268.00
2019-05-18T11:00:45.542Z,6352.00
2019-05-18T11:01:45.534Z,6440.00
2019-05-18T11:02:45.523Z,6524.00
2019-05-18T11:03:45.561Z,6600.00
2019-05-18T11:04:45.500Z,6696.00
2019-05-18T11:05:45.490Z,6756.00
2019-05-18T11:06:45.485Z,6836.00
2019-05-18T11:07:45.469Z,6908.00
2019-05-18T11:08:45.462Z,6940.00
2019-05-18T11:09:45.551Z,6948.00
2019-05-18T11:10:45.435Z,6964.00
2019-05-18T11:11:45.427Z,6976.00
2019-05-18T11:12:45.414Z,6996.00
2019-05-18T11:13:45.406Z,7004.00
2019-05-18T11:14:45.398Z,7052.00
2019-05-18T11:15:45.482Z,7052.00
2019-05-18T11:16:45.371Z,7092.00
2019-05-18T11:17:45.360Z,7036.00
2019-05-18T11:18:45.351Z,7032.00
2019-05-18T11:19:45.339Z,6996.00
2019-05-18T11:20:45.327Z,6984.00
2019-05-18T11:21:45.372Z,7012.00
2019-05-18T11:22:45.309Z,6928.00
2019-05-18T11:23:47.983Z,6872.00
2019-05-18T11:24:45.284Z,6916.00
2019-05-18T11:25:45.275Z,6892.00
2019-05-18T11:26:45.265Z,6860.00
2019-05-18T11:27:45.305Z,6784.00
2019-05-18T11:28:45.245Z,6692.00
2019-05-18T11:29:45.238Z,6568.00
2019-05-18T11:30:45.221Z,6452.00
2019-05-18T11:31:45.207Z,6332.00
2019-05-18T11:32:45.200Z,6236.00
2019-05-18T11:33:45.240Z,6152.00
2019-05-18T11:34:45.179Z,6076.00
2019-05-18T11:35:45.167Z,6016.00
2019-05-18T11:36:45.158Z,5924.00
2019-05-18T11:37:45.145Z,5792.00
2019-05-18T11:38:45.136Z,5656.00
2019-05-18T11:39:45.180Z,5528.00
2019-05-18T11:40:45.112Z,5392.00
2019-05-18T11:41:45.101Z,5264.00
2019-05-18T11:42:45.090Z,5148.00
2019-05-18T11:43:45.080Z,5076.00
2019-05-18T11:44:45.071Z,5060.00
2019-05-18T11:45:45.156Z,5092.00
2019-05-18T11:46:45.046Z,5140.00
2019-05-18T11:47:45.036Z,5188.00
2019-05-18T11:48:45.022Z,5212.00
2019-05-18T11:49:45.013Z,5188.00
2019-05-18T11:50:45.000Z,5144.00
2019-05-18T11:51:45.041Z,5104.00
2019-05-18T11:52:44.981Z,5068.00
2019-05-18T11:53:57.498Z,5012.00
2019-05-18T11:55:09.772Z,5016.00
2019-05-18T11:56:09.763Z,5056.00
2019-05-18T11:57:09.829Z,5020.00
2019-05-18T11:58:09.739Z,4888.00
2019-05-18T11:59:09.731Z,4676.00
2019-05-18T12:00:09.721Z,4464.00
2019-05-18T12:01:09.711Z,4300.00
2019-05-18T12:02:09.696Z,4176.00
2019-05-18T12:03:09.736Z,4084.00
2019-05-18T12:04:09.673Z,3992.00
2019-05-18T12:05:09.667Z,3844.00
2019-05-18T12:06:09.652Z,3720.00
2019-05-18T12:07:09.676Z,3628.00
2019-05-18T12:08:09.632Z,3608.00
2019-05-18T12:09:09.719Z,3628.00
2019-05-18T12:10:09.612Z,3708.00
2019-05-18T12:11:09.597Z,3828.00
2019-05-18T12:12:09.589Z,4092.00
2019-05-18T12:13:09.575Z,4348.00